Time;durP1;ratioP1;P1;durP2;ratioP2;P2;SDS_P1;SDS_P2;PMS_P1;PMS_P2;Temp;Humidity;BMP_temperature;BMP_pressure;BME280_temperature;BME280_humidity;BME280_pressure;Samples;Min_cycle;Max_cycle;Signal;HPM_P1;HPM_P2
2020/12/26 00:01:36;;;;;;;13.83;8.10;;;1.90;99.90;;;;;;4379875;32;20156;-73
2020/12/26 00:04:03;;;;;;;14.73;8.03;;;1.80;99.90;;;;;;4382096;32;20144;-73
2020/12/26 00:06:30;;;;;;;14.10;8.33;;;1.80;99.90;;;;;;4381695;32;20171;-73
2020/12/26 00:08:57;;;;;;;13.00;7.27;;;1.80;99.90;;;;;;4380014;32;20143;-74
2020/12/26 00:11:23;;;;;;;13.20;7.13;;;1.80;99.90;;;;;;4380330;32;20167;-73
2020/12/26 00:13:50;;;;;;;13.17;7.40;;;1.80;99.90;;;;;;4380220;32;20446;-72
2020/12/26 00:16:18;;;;;;;13.03;7.30;;;1.80;99.90;;;;;;4380133;32;20139;-74
2020/12/26 00:18:45;;;;;;;14.93;7.20;;;1.80;99.90;;;;;;4380535;32;20207;-73
2020/12/26 00:21:14;;;;;;;14.10;7.20;;;1.80;99.90;;;;;;4379947;32;20166;-73
2020/12/26 00:23:41;;;;;;;13.60;7.33;;;1.80;99.90;;;;;;4381318;32;20163;-73
2020/12/26 00:26:08;;;;;;;12.73;7.37;;;1.80;99.90;;;;;;4379976;32;20419;-73
2020/12/26 00:28:36;;;;;;;14.47;7.77;;;1.90;99.90;;;;;;4380021;32;20468;-73
2020/12/26 00:31:03;;;;;;;13.17;7.40;;;2.00;99.90;;;;;;4379953;32;20167;-72
2020/12/26 00:33:32;;;;;;;12.90;6.87;;;1.90;99.90;;;;;;4379952;32;20171;-73
2020/12/26 00:36:01;;;;;;;14.27;7.30;;;1.90;99.90;;;;;;4379937;32;20375;-73
2020/12/26 00:38:27;;;;;;;16.40;7.90;;;1.90;99.90;;;;;;4381379;32;20231;-73
2020/12/26 00:40:53;;;;;;;13.13;7.70;;;1.90;99.90;;;;;;4379952;32;20186;-73
2020/12/26 00:43:20;;;;;;;14.00;7.70;;;1.80;99.90;;;;;;4379739;32;20186;-73
2020/12/26 00:45:46;;;;;;;15.37;7.93;;;1.80;99.90;;;;;;4380196;32;20140;-72
2020/12/26 00:48:13;;;;;;;15.80;8.43;;;1.80;99.90;;;;;;4379734;32;20174;-72
2020/12/26 00:50:39;;;;;;;13.77;8.20;;;1.90;99.90;;;;;;4379622;32;20158;-72
2020/12/26 00:53:05;;;;;;;14.53;7.70;;;1.90;99.90;;;;;;4379728;32;20182;-73
2020/12/26 00:55:32;;;;;;;14.53;7.77;;;1.80;99.90;;;;;;4381112;32;20187;-73
2020/12/26 00:57:59;;;;;;;12.47;7.07;;;1.70;99.90;;;;;;4379566;32;20181;-73
2020/12/26 01:00:25;;;;;;;14.00;7.70;;;1.80;99.90;;;;;;4379532;32;20163;-73
2020/12/26 01:02:51;;;;;;;12.30;6.70;;;1.80;99.90;;;;;;4379486;32;20194;-73
2020/12/26 01:05:18;;;;;;;11.50;6.87;;;1.90;99.90;;;;;;4379494;32;20215;-73
2020/12/26 01:07:44;;;;;;;11.67;7.13;;;1.80;99.90;;;;;;4380402;32;20167;-73
2020/12/26 01:10:12;;;;;;;12.87;6.90;;;1.80;99.90;;;;;;4380414;32;20199;-73
2020/12/26 01:12:38;;;;;;;11.33;6.83;;;1.80;99.90;;;;;;4380394;32;20291;-73
2020/12/26 01:15:04;;;;;;;12.53;6.77;;;1.90;99.90;;;;;;4379608;32;20179;-73
2020/12/26 01:17:31;;;;;;;11.20;6.27;;;1.90;99.90;;;;;;4379413;32;20166;-73
2020/12/26 01:19:58;;;;;;;11.47;6.90;;;1.90;99.90;;;;;;4378973;32;20195;-73
2020/12/26 01:22:25;;;;;;;8.40;5.40;;;1.80;99.90;;;;;;4380711;32;20190;-72
2020/12/26 01:24:51;;;;;;;8.33;5.33;;;1.60;99.90;;;;;;4367300;32;20399;-73
2020/12/26 01:27:17;;;;;;;5.33;3.47;;;1.60;99.90;;;;;;4379295;32;20195;-72
2020/12/26 01:29:47;;;;;;;4.20;2.77;;;1.50;99.90;;;;;;4379261;32;20430;-72
2020/12/26 01:32:13;;;;;;;3.80;2.30;;;1.40;99.90;;;;;;4379187;32;20403;-73
2020/12/26 01:34:40;;;;;;;2.77;2.10;;;1.30;99.90;;;;;;4380430;32;20186;-73
2020/12/26 01:37:07;;;;;;;3.17;2.13;;;1.30;99.90;;;;;;4380310;32;20195;-73
2020/12/26 01:39:34;;;;;;;2.40;1.97;;;1.20;99.90;;;;;;4380645;32;20139;-73
2020/12/26 01:42:01;;;;;;;2.40;1.60;;;1.10;99.90;;;;;;4380093;32;20536;-73
2020/12/26 01:44:27;;;;;;;2.43;1.70;;;1.00;99.90;;;;;;4378902;32;20140;-73
2020/12/26 01:46:53;;;;;;;2.97;1.80;;;0.90;99.90;;;;;;4380357;32;20178;-73
2020/12/26 01:49:20;;;;;;;4.03;1.60;;;0.90;99.90;;;;;;4379119;32;20158;-73
2020/12/26 01:51:47;;;;;;;1.60;1.50;;;0.80;99.90;;;;;;4379267;32;20172;-73
2020/12/26 01:54:14;;;;;;;2.03;1.50;;;0.80;99.90;;;;;;4379662;32;20246;-73
2020/12/26 01:56:41;;;;;;;1.63;1.53;;;0.80;99.90;;;;;;4378987;32;20151;-73
2020/12/26 01:59:09;;;;;;;4.70;1.93;;;0.60;99.90;;;;;;4380401;32;20170;-73
2020/12/26 02:01:38;;;;;;;3.10;1.80;;;0.50;99.90;;;;;;4378889;32;20156;-73
2020/12/26 02:04:05;;;;;;;2.57;2.00;;;0.50;99.90;;;;;;4380266;32;20174;-72
2020/12/26 02:06:46;;;;;;;3.23;2.17;;;0.40;99.90;;;;;;4378935;32;20172;-73
2020/12/26 02:09:12;;;;;;;3.30;2.30;;;0.40;99.90;;;;;;4378991;32;20461;-73
2020/12/26 02:11:40;;;;;;;4.23;2.60;;;0.40;99.90;;;;;;4380322;32;20159;-73
2020/12/26 02:14:06;;;;;;;4.47;3.20;;;0.30;99.90;;;;;;4379346;32;20151;-73
2020/12/26 02:16:47;;;;;;;4.20;3.30;;;0.40;99.90;;;;;;4380316;32;20209;-73
2020/12/26 02:19:15;;;;;;;4.90;3.43;;;0.40;99.90;;;;;;4378801;32;20159;-73
2020/12/26 02:21:42;;;;;;;5.60;3.70;;;0.40;99.90;;;;;;4378302;32;20153;-73
2020/12/26 02:24:09;;;;;;;6.13;3.87;;;0.30;99.90;;;;;;4379152;32;20155;-73
2020/12/26 02:26:36;;;;;;;5.97;3.83;;;0.30;99.90;;;;;;4381834;32;20212;-73
2020/12/26 02:29:04;;;;;;;6.20;3.80;;;0.40;99.90;;;;;;4381792;32;20482;-73
2020/12/26 02:31:31;;;;;;;4.83;3.77;;;0.40;99.90;;;;;;4381770;32;20144;-73
2020/12/26 02:33:57;;;;;;;6.23;3.77;;;0.30;99.90;;;;;;4381653;32;20214;-73
2020/12/26 02:36:24;;;;;;;5.50;4.07;;;0.30;99.90;;;;;;4381650;32;20500;-73
2020/12/26 02:38:50;;;;;;;5.50;4.00;;;0.40;99.90;;;;;;4381652;32;20187;-73
2020/12/26 02:41:17;;;;;;;6.03;3.87;;;0.40;99.90;;;;;;4381729;32;20203;-73
2020/12/26 02:43:43;;;;;;;5.93;3.87;;;0.40;99.90;;;;;;4381442;32;20389;-73
2020/12/26 02:46:10;;;;;;;7.10;4.30;;;0.50;99.90;;;;;;4381497;32;20371;-73
2020/12/26 02:48:36;;;;;;;6.13;4.20;;;0.50;99.90;;;;;;4381517;32;20201;-72
2020/12/26 02:51:03;;;;;;;6.37;4.07;;;0.60;99.90;;;;;;4381378;32;20191;-72
2020/12/26 02:53:30;;;;;;;4.97;3.70;;;0.70;99.90;;;;;;4381388;32;20163;-73
2020/12/26 02:55:56;;;;;;;6.23;3.90;;;0.60;99.90;;;;;;4381442;32;20554;-72
2020/12/26 02:58:23;;;;;;;6.87;3.97;;;0.50;99.90;;;;;;4381325;32;20151;-73
2020/12/26 03:00:50;;;;;;;7.77;4.10;;;0.50;99.90;;;;;;4381426;32;20160;-73
2020/12/26 03:03:16;;;;;;;7.23;4.37;;;0.50;99.90;;;;;;4381795;32;20468;-74
2020/12/26 03:05:43;;;;;;;8.30;5.10;;;0.50;99.90;;;;;;4381178;32;20203;-73
2020/12/26 03:08:09;;;;;;;10.23;6.07;;;0.50;99.90;;;;;;4381461;32;20177;-73
2020/12/26 03:10:36;;;;;;;11.10;6.70;;;0.60;99.90;;;;;;4382867;32;20384;-72
2020/12/26 03:13:02;;;;;;;10.70;6.63;;;0.60;99.90;;;;;;4382501;32;20136;-73
2020/12/26 03:15:29;;;;;;;11.27;6.97;;;0.60;99.90;;;;;;4381057;32;20155;-72
2020/12/26 03:17:55;;;;;;;11.20;6.43;;;0.60;99.90;;;;;;4381056;32;20166;-72
2020/12/26 03:20:22;;;;;;;11.37;6.97;;;0.60;99.90;;;;;;4381015;32;20160;-72
2020/12/26 03:22:49;;;;;;;9.27;6.20;;;0.60;99.90;;;;;;4381029;32;20198;-72
2020/12/26 03:25:16;;;;;;;10.20;5.53;;;0.50;99.90;;;;;;4382437;32;20190;-72
2020/12/26 03:27:43;;;;;;;9.47;5.83;;;0.50;99.90;;;;;;4379641;32;20448;-72
2020/12/26 03:30:09;;;;;;;9.90;5.77;;;0.40;99.90;;;;;;4381322;32;20179;-72
2020/12/26 03:32:37;;;;;;;9.80;5.63;;;0.40;99.90;;;;;;4380382;32;20163;-72
2020/12/26 03:35:04;;;;;;;8.60;5.20;;;0.40;99.90;;;;;;4381499;32;20178;-72
2020/12/26 03:37:33;;;;;;;8.27;5.40;;;0.40;99.90;;;;;;4381627;32;20139;-72
2020/12/26 03:39:59;;;;;;;9.57;5.67;;;0.40;99.90;;;;;;4381492;32;20132;-72
2020/12/26 03:42:26;;;;;;;7.73;5.00;;;0.40;99.90;;;;;;4380173;32;20188;-73
2020/12/26 03:44:52;;;;;;;8.67;5.70;;;0.40;99.90;;;;;;4381606;32;20497;-72
2020/12/26 03:47:18;;;;;;;13.00;6.60;;;0.40;99.90;;;;;;4380191;32;20195;-72
2020/12/26 03:59:24;;;;;;;11.67;6.63;;;0.50;99.90;;;;;;4378940;32;20194;-72
2020/12/26 04:01:51;;;;;;;12.93;6.80;;;0.50;99.90;;;;;;4380375;32;20226;-72
2020/12/26 04:04:17;;;;;;;11.17;6.90;;;0.60;99.90;;;;;;4382213;32;20231;-73
2020/12/26 04:06:44;;;;;;;11.77;6.90;;;0.60;99.90;;;;;;4380473;32;20136;-73
2020/12/26 04:09:13;;;;;;;10.33;6.40;;;0.70;99.90;;;;;;4380941;32;20210;-72
2020/12/26 04:11:40;;;;;;;10.60;5.73;;;0.70;99.90;;;;;;4380378;32;20344;-73
2020/12/26 04:14:06;;;;;;;11.47;5.80;;;0.60;99.90;;;;;;4382052;32;20384;-73
2020/12/26 04:16:33;;;;;;;10.50;6.43;;;0.60;99.90;;;;;;4380298;32;20190;-73
2020/12/26 04:18:59;;;;;;;9.93;5.87;;;0.60;99.90;;;;;;4380128;32;20223;-72
2020/12/26 04:21:26;;;;;;;10.93;5.83;;;0.70;99.90;;;;;;4380197;32;20175;-73
2020/12/26 04:23:53;;;;;;;9.77;6.30;;;0.70;99.90;;;;;;4380203;32;20179;-73
2020/12/26 04:26:20;;;;;;;10.57;6.47;;;0.60;99.90;;;;;;4381630;32;20222;-73
2020/12/26 04:28:48;;;;;;;11.93;5.90;;;0.70;99.90;;;;;;4380168;32;20151;-73
2020/12/26 04:31:16;;;;;;;11.30;5.93;;;0.70;99.90;;;;;;4381178;32;20171;-72
2020/12/26 04:33:42;;;;;;;10.10;5.87;;;0.60;99.90;;;;;;4380020;32;20162;-73
2020/12/26 04:36:09;;;;;;;9.30;6.13;;;0.60;99.90;;;;;;4380525;32;20470;-73
2020/12/26 04:38:36;;;;;;;8.93;5.80;;;0.50;99.90;;;;;;4379812;32;20204;-73
2020/12/26 04:41:03;;;;;;;9.33;5.57;;;0.50;99.90;;;;;;4380073;32;20213;-73
2020/12/26 04:43:31;;;;;;;9.53;6.00;;;0.50;99.90;;;;;;4379886;32;20409;-73
2020/12/26 04:45:58;;;;;;;11.07;6.10;;;0.50;99.90;;;;;;4379677;32;20174;-73
2020/12/26 04:48:26;;;;;;;8.47;5.67;;;0.50;99.90;;;;;;4379965;32;20517;-73
2020/12/26 04:51:00;;;;;;;10.37;5.67;;;0.50;99.90;;;;;;4381248;32;20155;-72
2020/12/26 04:53:37;;;;;;;9.53;5.87;;;0.50;99.90;;;;;;4381238;32;20182;-73
2020/12/26 04:56:05;;;;;;;10.93;5.97;;;0.50;99.90;;;;;;4381212;32;20185;-73
2020/12/26 04:58:34;;;;;;;9.53;6.07;;;0.40;99.90;;;;;;4379735;32;20539;-73
2020/12/26 05:01:00;;;;;;;12.20;6.77;;;0.50;99.90;;;;;;4379660;32;20147;-73
2020/12/26 05:03:27;;;;;;;12.67;6.90;;;0.60;99.90;;;;;;4379682;32;20182;-73
2020/12/26 05:06:03;;;;;;;11.57;6.90;;;0.60;99.90;;;;;;4380803;32;20223;-73
2020/12/26 05:08:31;;;;;;;13.70;7.10;;;0.50;99.90;;;;;;4379731;32;20167;-73
2020/12/26 05:10:57;;;;;;;11.50;7.07;;;0.60;99.90;;;;;;4379637;32;20206;-73
2020/12/26 05:13:24;;;;;;;10.10;6.43;;;0.70;99.90;;;;;;4380137;32;20144;-73
2020/12/26 05:15:53;;;;;;;12.07;6.60;;;0.70;99.90;;;;;;4380217;32;20181;-73
2020/12/26 05:18:20;;;;;;;11.60;6.00;;;0.70;99.90;;;;;;4380514;32;20502;-73
2020/12/26 05:20:46;;;;;;;10.23;5.60;;;0.70;99.90;;;;;;4380834;32;20232;-73
2020/12/26 05:23:15;;;;;;;9.70;5.97;;;0.70;99.90;;;;;;4380756;32;20136;-73
2020/12/26 05:25:44;;;;;;;10.37;5.90;;;0.80;99.90;;;;;;4379478;32;20519;-73
2020/12/26 05:28:16;;;;;;;11.23;6.00;;;0.80;99.90;;;;;;4379257;32;20178;-73
2020/12/26 05:30:45;;;;;;;7.10;4.70;;;0.90;99.90;;;;;;4379277;32;20167;-73
2020/12/26 05:33:14;;;;;;;8.87;5.33;;;1.00;99.90;;;;;;4379235;32;20525;-73
2020/12/26 05:35:44;;;;;;;10.00;5.90;;;0.90;99.90;;;;;;4379318;32;20462;-73
2020/12/26 05:38:23;;;;;;;8.80;5.00;;;1.00;99.90;;;;;;4379467;32;20160;-75
2020/12/26 05:40:52;;;;;;;7.63;5.30;;;1.10;99.90;;;;;;4380779;32;20165;-73
2020/12/26 05:43:21;;;;;;;8.63;5.20;;;1.10;99.90;;;;;;4379415;32;20167;-73
2020/12/26 05:45:48;;;;;;;9.60;5.30;;;1.10;99.90;;;;;;4380676;32;20163;-74
2020/12/26 05:48:20;;;;;;;9.13;5.43;;;1.10;99.90;;;;;;4379307;32;20168;-74
2020/12/26 05:50:48;;;;;;;9.13;5.57;;;1.10;99.90;;;;;;4380851;32;20231;-73
2020/12/26 05:53:15;;;;;;;12.07;6.37;;;1.10;99.90;;;;;;4379099;32;20154;-73
2020/12/26 05:55:46;;;;;;;10.87;6.33;;;1.10;99.90;;;;;;4379128;32;20162;-73
2020/12/26 05:58:13;;;;;;;13.97;7.40;;;1.10;99.90;;;;;;4378998;32;20144;-74
2020/12/26 06:00:41;;;;;;;13.73;8.43;;;1.00;99.90;;;;;;4383470;32;20156;-73
2020/12/26 06:03:23;;;;;;;14.40;8.27;;;1.10;99.90;;;;;;4384022;32;20139;-74
2020/12/26 06:05:53;;;;;;;14.77;7.93;;;1.10;99.90;;;;;;4384255;32;20136;-73
2020/12/26 06:08:20;;;;;;;13.67;7.63;;;1.10;99.90;;;;;;4384115;32;20139;-73
2020/12/26 06:10:54;;;;;;;13.67;7.77;;;1.20;99.90;;;;;;4383962;32;20151;-74
2020/12/26 06:13:25;;;;;;;10.43;6.87;;;1.10;99.90;;;;;;4384392;32;20467;-74
2020/12/26 06:15:58;;;;;;;12.70;7.37;;;1.20;99.90;;;;;;4384849;32;20408;-74
2020/12/26 06:18:25;;;;;;;12.70;7.33;;;1.10;99.90;;;;;;4383884;32;20218;-74
2020/12/26 06:20:52;;;;;;;11.93;7.53;;;1.20;99.90;;;;;;4383872;32;20156;-73
2020/12/26 06:23:25;;;;;;;11.13;6.77;;;1.30;99.90;;;;;;4384182;32;20148;-73
2020/12/26 06:25:55;;;;;;;9.67;6.47;;;1.20;99.90;;;;;;4383791;32;20189;-73
2020/12/26 06:28:33;;;;;;;10.00;6.13;;;1.20;99.90;;;;;;4381765;32;20449;-74
2020/12/26 06:31:03;;;;;;;10.63;6.60;;;1.20;99.90;;;;;;4384200;32;20195;-74
2020/12/26 06:33:37;;;;;;;10.97;6.80;;;1.20;99.90;;;;;;4384074;32;20203;-74
2020/12/26 06:36:05;;;;;;;12.60;6.33;;;1.20;99.90;;;;;;4383782;32;20140;-74
2020/12/26 06:38:32;;;;;;;10.63;6.40;;;1.30;99.90;;;;;;4383220;32;20559;-73
2020/12/26 06:41:03;;;;;;;9.23;5.93;;;1.20;99.90;;;;;;4383714;32;20210;-73
2020/12/26 06:43:43;;;;;;;11.60;5.97;;;1.30;99.90;;;;;;4385442;32;20194;-74
2020/12/26 06:46:32;;;;;;;9.63;6.00;;;1.30;99.90;;;;;;4383712;32;20143;-74
2020/12/26 06:48:59;;;;;;;8.97;5.90;;;1.20;99.90;;;;;;4384469;32;20211;-73
2020/12/26 06:51:43;;;;;;;11.13;6.23;;;1.20;99.90;;;;;;4384282;32;20525;-73
2020/12/26 06:54:12;;;;;;;10.97;6.40;;;1.20;99.90;;;;;;4383738;32;20174;-73
2020/12/26 06:56:41;;;;;;;10.40;5.93;;;1.20;99.90;;;;;;4384718;32;20470;-73
2020/12/26 06:59:10;;;;;;;10.90;6.00;;;1.30;99.90;;;;;;4383648;32;20195;-73
2020/12/26 07:01:39;;;;;;;10.40;6.50;;;1.20;99.90;;;;;;4384445;32;20143;-74
2020/12/26 07:04:08;;;;;;;11.73;6.20;;;1.30;99.90;;;;;;4384496;32;20474;-73
2020/12/26 07:06:40;;;;;;;9.00;6.20;;;1.30;99.90;;;;;;4383210;32;20170;-73
2020/12/26 07:09:07;;;;;;;10.77;6.67;;;1.30;99.90;;;;;;4383838;32;20219;-75
2020/12/26 07:11:52;;;;;;;10.10;6.53;;;1.30;99.90;;;;;;4381904;32;20173;-74
2020/12/26 07:14:30;;;;;;;10.87;6.83;;;1.30;99.90;;;;;;4382327;32;20146;-74
2020/12/26 07:17:22;;;;;;;11.30;6.13;;;1.30;99.90;;;;;;4380875;32;20186;-74
2020/12/26 07:19:51;;;;;;;11.03;6.20;;;1.40;99.90;;;;;;4381059;32;20183;-74
2020/12/26 07:22:31;;;;;;;9.83;6.47;;;1.40;99.90;;;;;;4380931;32;20148;-74
2020/12/26 07:25:07;;;;;;;10.57;6.73;;;1.40;99.90;;;;;;4381540;32;20170;-74
2020/12/26 07:27:38;;;;;;;9.67;6.20;;;1.40;99.90;;;;;;4382467;32;20159;-74
2020/12/26 07:30:15;;;;;;;10.33;6.43;;;1.40;99.90;;;;;;4382475;32;20569;-74
2020/12/26 07:32:55;;;;;;;10.83;6.67;;;1.50;99.90;;;;;;4381042;32;20139;-74
2020/12/26 07:35:25;;;;;;;11.40;6.23;;;1.40;99.90;;;;;;4380624;32;20156;-74
2020/12/26 07:38:03;;;;;;;10.00;6.40;;;1.50;99.90;;;;;;4380857;32;20178;-74
2020/12/26 07:40:39;;;;;;;9.43;5.63;;;1.50;99.90;;;;;;4381550;32;20163;-74
2020/12/26 07:43:11;;;;;;;9.80;5.80;;;1.50;99.90;;;;;;4381550;32;20551;-74
2020/12/26 07:45:39;;;;;;;10.03;5.60;;;1.40;99.90;;;;;;4382158;32;20223;-74
2020/12/26 07:48:06;;;;;;;8.80;5.30;;;1.40;99.90;;;;;;4382205;32;20460;-74
2020/12/26 07:50:36;;;;;;;8.53;5.40;;;1.50;99.90;;;;;;4380648;32;20159;-75
2020/12/26 07:53:10;;;;;;;10.00;5.50;;;1.50;99.90;;;;;;4380511;32;20196;-75
2020/12/26 07:55:37;;;;;;;10.67;5.70;;;1.50;99.90;;;;;;4380575;32;20148;-75
2020/12/26 07:58:08;;;;;;;8.47;5.00;;;1.50;99.90;;;;;;4380544;32;20497;-73
2020/12/26 08:00:37;;;;;;;9.07;4.97;;;1.50;99.90;;;;;;4380375;32;20205;-73
2020/12/26 08:03:06;;;;;;;9.33;4.90;;;1.40;99.90;;;;;;4380276;32;20140;-73
2020/12/26 08:05:34;;;;;;;9.00;5.20;;;1.30;99.90;;;;;;4380194;32;20166;-73
2020/12/26 08:08:11;;;;;;;10.60;5.07;;;1.30;99.90;;;;;;4381357;32;20144;-73
2020/12/26 08:10:37;;;;;;;11.10;5.10;;;1.30;99.90;;;;;;4382078;32;20353;-74
2020/12/26 08:13:05;;;;;;;8.30;5.50;;;1.50;99.90;;;;;;4380201;32;20184;-74
2020/12/26 08:15:32;;;;;;;8.60;5.37;;;1.70;99.90;;;;;;4380322;32;20140;-74
2020/12/26 08:18:03;;;;;;;9.40;5.77;;;1.70;99.90;;;;;;4381189;32;20198;-74
2020/12/26 08:20:33;;;;;;;8.80;5.87;;;1.80;99.90;;;;;;4380157;32;20140;-73
2020/12/26 08:23:00;;;;;;;9.27;5.70;;;1.80;99.90;;;;;;4379819;32;20140;-74
2020/12/26 08:25:28;;;;;;;9.13;5.67;;;1.80;99.90;;;;;;4380166;32;20141;-74
2020/12/26 08:27:55;;;;;;;10.17;5.87;;;1.70;99.90;;;;;;4380000;32;20209;-74
2020/12/26 08:30:35;;;;;;;10.63;6.23;;;1.70;99.90;;;;;;4380077;32;20194;-74
2020/12/26 08:33:11;;;;;;;10.70;5.47;;;1.70;99.90;;;;;;4379762;32;20512;-74
2020/12/26 08:36:07;;;;;;;8.23;5.30;;;1.80;99.90;;;;;;4381450;32;20195;-73
2020/12/26 08:38:53;;;;;;;9.90;5.37;;;1.70;99.90;;;;;;4379340;32;20194;-74
2020/12/26 08:41:21;;;;;;;8.57;5.03;;;1.80;99.90;;;;;;4380705;32;20168;-74
2020/12/26 08:43:48;;;;;;;7.43;4.83;;;1.90;99.90;;;;;;4381442;32;20231;-74
2020/12/26 08:46:27;;;;;;;9.97;5.13;;;1.90;99.90;;;;;;4379653;32;20463;-73
2020/12/26 08:48:57;;;;;;;9.50;5.00;;;1.90;99.90;;;;;;4381004;32;20203;-74
2020/12/26 08:51:25;;;;;;;8.30;5.07;;;1.90;99.90;;;;;;4379688;32;20156;-74
2020/12/26 08:53:56;;;;;;;8.50;5.20;;;1.90;99.90;;;;;;4380151;32;20402;-74
2020/12/26 08:56:39;;;;;;;9.77;5.33;;;1.90;99.90;;;;;;4380068;32;20144;-74
2020/12/26 08:59:06;;;;;;;9.67;5.37;;;1.80;99.90;;;;;;4380942;32;20201;-73
2020/12/26 09:01:33;;;;;;;8.77;5.60;;;1.90;99.90;;;;;;4379028;32;20162;-74
2020/12/26 09:04:00;;;;;;;9.50;5.10;;;1.90;99.90;;;;;;4381059;32;20207;-73
2020/12/26 09:06:31;;;;;;;9.70;5.73;;;1.80;99.90;;;;;;4381059;32;20200;-74
2020/12/26 09:08:58;;;;;;;9.30;6.03;;;1.90;99.90;;;;;;4379855;32;20136;-74
2020/12/26 09:11:32;;;;;;;9.53;5.57;;;1.90;99.90;;;;;;4380644;32;20198;-74
2020/12/26 09:13:58;;;;;;;9.20;5.87;;;2.00;99.90;;;;;;4380364;32;20177;-74
2020/12/26 09:16:28;;;;;;;8.80;6.13;;;1.90;99.90;;;;;;4379341;32;20201;-73
2020/12/26 09:18:59;;;;;;;9.90;5.83;;;2.00;99.90;;;;;;4379530;32;20158;-74
2020/12/26 09:21:28;;;;;;;11.50;6.77;;;2.00;99.90;;;;;;4379796;32;20151;-74
2020/12/26 09:23:56;;;;;;;10.20;6.07;;;2.00;99.90;;;;;;4378850;32;20191;-74
2020/12/26 09:26:28;;;;;;;11.13;6.23;;;2.00;99.90;;;;;;4379377;32;20196;-74
2020/12/26 09:29:00;;;;;;;10.70;6.00;;;2.00;99.90;;;;;;4379429;32;20144;-73
2020/12/26 09:31:31;;;;;;;9.30;5.77;;;2.20;99.90;;;;;;4379289;32;20531;-73
2020/12/26 09:34:01;;;;;;;9.63;5.50;;;2.20;99.90;;;;;;4378654;32;20380;-74
2020/12/26 09:36:28;;;;;;;11.17;6.77;;;1.90;99.90;;;;;;4380672;32;20132;-74
2020/12/26 09:38:55;;;;;;;12.30;6.60;;;1.90;99.90;;;;;;4379217;32;20148;-74
2020/12/26 09:41:24;;;;;;;12.27;6.20;;;1.80;99.90;;;;;;4380577;32;20201;-74
2020/12/26 09:43:52;;;;;;;12.03;6.73;;;1.80;99.90;;;;;;4378525;32;20144;-74
2020/12/26 09:46:20;;;;;;;12.60;7.20;;;1.70;99.90;;;;;;4379196;32;20463;-74
2020/12/26 09:48:47;;;;;;;13.20;7.40;;;1.70;99.90;;;;;;4379054;32;20182;-74
2020/12/26 09:51:20;;;;;;;13.20;7.50;;;1.70;99.90;;;;;;4379572;32;20139;-73
2020/12/26 09:53:49;;;;;;;12.87;7.63;;;1.70;99.90;;;;;;4379375;32;20429;-74
2020/12/26 09:56:16;;;;;;;13.60;7.47;;;1.80;99.90;;;;;;4380135;32;20417;-73
2020/12/26 09:58:44;;;;;;;12.90;7.50;;;1.90;99.90;;;;;;4378614;32;20236;-74
2020/12/26 10:01:16;;;;;;;12.50;7.43;;;2.00;99.90;;;;;;4378748;32;20152;-74
2020/12/26 10:03:43;;;;;;;12.40;7.60;;;2.00;99.90;;;;;;4378920;32;20140;-74
2020/12/26 10:06:18;;;;;;;12.00;6.87;;;2.00;99.90;;;;;;4379466;32;20219;-75
2020/12/26 10:08:46;;;;;;;10.70;6.87;;;1.90;99.90;;;;;;4378823;32;20139;-74
2020/12/26 10:11:17;;;;;;;13.60;7.83;;;2.00;99.90;;;;;;4379542;32;20140;-74
2020/12/26 10:13:45;;;;;;;13.53;7.97;;;2.10;99.90;;;;;;4378791;32;20374;-74
2020/12/26 10:16:14;;;;;;;14.40;7.70;;;2.20;99.90;;;;;;4378815;32;20136;-74
2020/12/26 10:18:41;;;;;;;13.73;7.67;;;2.30;99.90;;;;;;4378521;32;20494;-74
2020/12/26 10:21:17;;;;;;;13.00;7.67;;;2.30;99.90;;;;;;4380256;32;20144;-74
2020/12/26 10:23:44;;;;;;;12.93;7.37;;;2.30;99.90;;;;;;4378817;32;20140;-74
2020/12/26 10:26:11;;;;;;;12.30;7.30;;;2.50;99.90;;;;;;4365403;32;20144;-74
2020/12/26 10:28:38;;;;;;;11.93;7.60;;;2.30;99.90;;;;;;4378894;32;20147;-74
2020/12/26 10:31:05;;;;;;;12.17;7.33;;;2.20;99.90;;;;;;4378694;32;20162;-74
2020/12/26 10:33:31;;;;;;;13.53;7.87;;;2.20;99.90;;;;;;4378670;32;20163;-74
2020/12/26 10:35:58;;;;;;;12.97;7.60;;;2.40;99.90;;;;;;4378971;32;20497;-75
2020/12/26 10:38:24;;;;;;;13.00;7.70;;;2.40;99.90;;;;;;4380392;32;20140;-73
2020/12/26 10:40:51;;;;;;;13.60;7.57;;;2.30;99.90;;;;;;4378672;32;20152;-74
2020/12/26 10:43:17;;;;;;;11.37;7.10;;;2.50;99.90;;;;;;4378739;32;20420;-75
2020/12/26 10:45:44;;;;;;;12.37;7.83;;;2.40;99.90;;;;;;4379599;32;20166;-74
2020/12/26 10:48:11;;;;;;;12.10;7.13;;;2.20;99.90;;;;;;4381452;32;20140;-74
2020/12/26 10:50:37;;;;;;;12.43;7.10;;;2.10;99.90;;;;;;4382182;32;20144;-74
2020/12/26 10:53:04;;;;;;;12.20;7.30;;;2.10;99.90;;;;;;4381235;32;20195;-73
2020/12/26 10:55:30;;;;;;;11.10;6.70;;;2.20;99.90;;;;;;4382134;32;20154;-75
2020/12/26 10:57:57;;;;;;;11.57;7.40;;;2.40;99.90;;;;;;4381453;32;20162;-74
2020/12/26 11:00:24;;;;;;;13.30;7.20;;;2.30;99.90;;;;;;4381189;32;20211;-74
2020/12/26 11:02:50;;;;;;;12.10;7.07;;;2.30;99.90;;;;;;4380949;32;20194;-74
2020/12/26 11:05:17;;;;;;;15.40;7.43;;;2.10;99.90;;;;;;4381512;32;20172;-74
2020/12/26 11:07:43;;;;;;;11.17;7.03;;;2.10;99.90;;;;;;4381175;32;20215;-74
2020/12/26 11:10:10;;;;;;;12.80;7.40;;;2.20;99.90;;;;;;4381185;32;20152;-75
2020/12/26 11:12:37;;;;;;;14.27;7.03;;;2.30;99.90;;;;;;4381708;32;20159;-75
2020/12/26 11:15:04;;;;;;;12.63;7.13;;;2.20;99.90;;;;;;4381157;32;20144;-74
2020/12/26 11:17:30;;;;;;;12.70;7.07;;;2.30;99.90;;;;;;4381478;32;20175;-75
2020/12/26 11:19:56;;;;;;;11.97;7.13;;;2.40;99.90;;;;;;4380928;32;20194;-75
2020/12/26 11:22:23;;;;;;;12.10;7.60;;;2.40;99.90;;;;;;4380749;32;20195;-74
2020/12/26 11:24:50;;;;;;;12.97;7.50;;;2.40;99.90;;;;;;4381443;32;20144;-74
2020/12/26 11:27:16;;;;;;;13.93;7.63;;;2.40;99.90;;;;;;4380936;32;20243;-75
2020/12/26 11:29:43;;;;;;;13.17;7.90;;;2.50;99.90;;;;;;4380873;32;20148;-76
2020/12/26 11:32:09;;;;;;;15.63;8.37;;;2.50;99.90;;;;;;4380252;32;20159;-75
2020/12/26 11:34:35;;;;;;;13.10;7.80;;;2.50;99.90;;;;;;4380907;32;20536;-75
2020/12/26 11:37:05;;;;;;;15.13;7.57;;;2.50;99.90;;;;;;4380821;32;20148;-74
2020/12/26 11:39:32;;;;;;;14.60;8.20;;;2.60;99.90;;;;;;4380650;32;20163;-75
2020/12/26 11:41:58;;;;;;;12.80;7.90;;;2.40;99.90;;;;;;4381719;32;20167;-74
2020/12/26 11:44:24;;;;;;;12.27;7.67;;;2.40;99.90;;;;;;4380704;32;20478;-75
2020/12/26 11:46:51;;;;;;;11.57;7.53;;;2.40;99.90;;;;;;4380589;32;20151;-75
2020/12/26 11:49:22;;;;;;;15.03;7.90;;;2.40;99.90;;;;;;4380851;32;20136;-74
2020/12/26 11:51:51;;;;;;;13.10;7.67;;;2.40;99.90;;;;;;4366540;32;20168;-74
2020/12/26 11:54:18;;;;;;;13.83;7.80;;;2.60;99.90;;;;;;4380596;32;20140;-74
2020/12/26 11:56:50;;;;;;;11.67;7.50;;;2.60;99.90;;;;;;4379195;32;20218;-76
2020/12/26 11:59:17;;;;;;;12.73;7.60;;;2.60;99.90;;;;;;4380641;32;20453;-74
2020/12/26 12:01:43;;;;;;;13.47;7.53;;;2.70;99.90;;;;;;4380071;32;20148;-75
2020/12/26 12:04:10;;;;;;;11.60;7.40;;;2.80;99.90;;;;;;4377716;32;20215;-75
2020/12/26 12:06:36;;;;;;;11.47;6.87;;;2.80;99.90;;;;;;4379668;32;20214;-74
2020/12/26 12:09:04;;;;;;;11.73;6.97;;;2.80;99.90;;;;;;4380801;32;20136;-74
2020/12/26 12:11:31;;;;;;;12.50;7.10;;;2.70;99.90;;;;;;4380171;32;20190;-74
2020/12/26 12:13:57;;;;;;;12.83;7.33;;;2.60;99.90;;;;;;4380209;32;20198;-74
2020/12/26 12:16:24;;;;;;;14.70;8.17;;;2.80;99.90;;;;;;4380206;32;20139;-74
2020/12/26 12:18:50;;;;;;;12.97;7.27;;;2.90;99.90;;;;;;4379922;32;20494;-74
2020/12/26 12:21:17;;;;;;;12.27;7.73;;;2.80;99.90;;;;;;4378818;32;20211;-74
2020/12/26 12:23:43;;;;;;;12.73;7.17;;;2.90;99.90;;;;;;4380030;32;20203;-74
2020/12/26 12:26:09;;;;;;;12.87;7.07;;;2.90;99.90;;;;;;4381593;32;20151;-74
2020/12/26 12:28:36;;;;;;;12.97;7.33;;;3.00;99.90;;;;;;4380073;32;20187;-74
2020/12/26 12:31:02;;;;;;;12.23;7.07;;;2.90;99.90;;;;;;4381589;32;20167;-74
2020/12/26 12:33:29;;;;;;;12.97;7.03;;;3.00;99.90;;;;;;4380065;32;20338;-74
2020/12/26 12:35:55;;;;;;;12.57;7.00;;;3.10;99.90;;;;;;4366023;32;20443;-74
2020/12/26 12:38:22;;;;;;;11.43;6.80;;;3.10;99.90;;;;;;4379602;32;20140;-75
2020/12/26 12:40:48;;;;;;;10.87;6.70;;;3.10;99.90;;;;;;4379826;32;20220;-75
2020/12/26 12:43:14;;;;;;;12.80;6.63;;;2.90;99.90;;;;;;4380962;32;20170;-74
2020/12/26 12:45:41;;;;;;;12.43;7.47;;;3.00;99.90;;;;;;4379760;32;20186;-74
2020/12/26 12:48:07;;;;;;;10.40;7.13;;;3.00;99.90;;;;;;4379741;32;20155;-74
2020/12/26 12:50:34;;;;;;;13.57;7.20;;;3.00;99.90;;;;;;4380097;32;20520;-74
2020/12/26 12:53:00;;;;;;;11.73;6.57;;;3.00;99.90;;;;;;4379159;32;20132;-75
2020/12/26 12:55:27;;;;;;;12.03;6.57;;;3.00;99.90;;;;;;4379156;32;20162;-74
2020/12/26 12:57:53;;;;;;;12.13;6.70;;;3.10;99.90;;;;;;4379493;32;20382;-74
2020/12/26 13:00:20;;;;;;;11.60;6.60;;;3.00;99.90;;;;;;4379554;32;20140;-74
2020/12/26 13:02:46;;;;;;;9.80;6.37;;;3.00;99.90;;;;;;4379596;32;20183;-74
2020/12/26 13:05:13;;;;;;;11.00;6.50;;;3.00;99.90;;;;;;4379472;32;20148;-73
2020/12/26 13:07:39;;;;;;;11.73;6.37;;;3.20;99.90;;;;;;4379373;32;20186;-74